createdAt,value
2023-09-27T00:00:11.148Z,11.73
2023-09-27T00:03:02.603Z,11.69
2023-09-27T00:05:32.332Z,11.66
2023-09-27T00:08:01.090Z,11.64
2023-09-27T00:10:29.184Z,11.62
2023-09-27T00:12:58.090Z,11.60
2023-09-27T00:15:26.565Z,11.58
2023-09-27T00:17:55.742Z,11.55
2023-09-27T00:20:27.551Z,11.52
2023-09-27T00:22:57.331Z,11.50
2023-09-27T00:25:25.473Z,11.49
2023-09-27T00:27:53.555Z,11.45
2023-09-27T00:30:23.452Z,11.43
2023-09-27T00:32:51.755Z,11.41
2023-09-27T00:35:24.342Z,11.39
2023-09-27T00:37:53.288Z,11.38
2023-09-27T00:40:24.085Z,11.35
2023-09-27T00:42:52.416Z,11.31
2023-09-27T00:45:23.468Z,11.27
2023-09-27T00:47:52.719Z,11.28
2023-09-27T00:50:21.228Z,11.26
2023-09-27T00:52:50.234Z,11.24
2023-09-27T00:55:21.254Z,11.21
2023-09-27T00:57:51.530Z,11.18
2023-09-27T01:00:20.658Z,11.14
2023-09-27T01:02:49.219Z,11.12
2023-09-27T01:05:19.690Z,11.08
2023-09-27T01:07:48.461Z,11.05
2023-09-27T01:10:17.019Z,11.02
2023-09-27T01:12:45.378Z,11.01
2023-09-27T01:15:14.157Z,10.98
2023-09-27T01:17:56.450Z,10.95
2023-09-27T01:20:26.052Z,10.92
2023-09-27T01:23:01.965Z,10.93
2023-09-27T01:25:32.228Z,10.91
2023-09-27T01:28:01.900Z,10.90
2023-09-27T01:30:34.154Z,10.87
2023-09-27T01:33:07.428Z,10.86
2023-09-27T01:35:43.392Z,10.86
2023-09-27T01:38:13.953Z,10.85
2023-09-27T01:40:44.082Z,10.85
2023-09-27T01:43:16.047Z,10.84
2023-09-27T01:45:44.358Z,10.81
2023-09-27T01:48:13.964Z,10.79
2023-09-27T01:50:42.838Z,10.78
2023-09-27T01:53:11.455Z,10.75
2023-09-27T01:55:39.969Z,10.73
2023-09-27T01:58:08.056Z,10.71
2023-09-27T02:00:37.350Z,10.69
2023-09-27T02:03:06.320Z,10.68
2023-09-27T02:05:34.844Z,10.65
2023-09-27T02:08:03.179Z,10.63
2023-09-27T02:10:31.355Z,10.62
2023-09-27T02:13:00.151Z,10.61
2023-09-27T02:15:28.949Z,10.60
2023-09-27T02:17:57.019Z,10.59
2023-09-27T02:20:26.126Z,10.58
2023-09-27T02:22:56.102Z,10.55
2023-09-27T02:25:24.616Z,10.54
2023-09-27T02:27:53.101Z,10.52
2023-09-27T02:30:21.158Z,10.49
2023-09-27T02:32:49.352Z,10.47
2023-09-27T02:35:20.576Z,10.44
2023-09-27T02:37:49.247Z,10.43
2023-09-27T02:40:18.846Z,10.41
2023-09-27T02:42:49.961Z,10.41
2023-09-27T02:45:18.114Z,10.41
2023-09-27T02:47:48.252Z,10.41
2023-09-27T02:50:17.187Z,10.40
2023-09-27T02:52:45.679Z,10.40
2023-09-27T02:55:15.600Z,10.38
2023-09-27T02:57:52.742Z,10.37
2023-09-27T03:00:23.639Z,10.35
2023-09-27T03:02:53.502Z,10.32
2023-09-27T03:05:21.854Z,10.29
2023-09-27T03:07:50.152Z,10.29
2023-09-27T03:10:19.429Z,10.27
2023-09-27T03:12:50.022Z,10.25
2023-09-27T03:15:18.452Z,10.25
2023-09-27T03:17:49.161Z,10.23
2023-09-27T03:20:18.334Z,10.23
2023-09-27T03:22:47.787Z,10.23
2023-09-27T03:25:20.045Z,10.23
2023-09-27T03:27:48.989Z,10.23
2023-09-27T03:30:18.383Z,10.22
2023-09-27T03:32:46.896Z,10.21
2023-09-27T03:35:15.593Z,10.21
2023-09-27T03:37:46.092Z,10.18
2023-09-27T03:40:15.780Z,10.16
2023-09-27T03:42:45.771Z,10.15
2023-09-27T03:45:18.619Z,10.14
2023-09-27T03:47:49.075Z,10.14
2023-09-27T03:50:21.996Z,10.10
2023-09-27T03:52:50.534Z,10.08
2023-09-27T03:55:18.787Z,10.06
2023-09-27T03:57:46.944Z,10.04
2023-09-27T04:00:18.568Z,10.01
2023-09-27T04:02:50.929Z,9.96
2023-09-27T04:05:24.951Z,9.94
2023-09-27T04:07:53.400Z,9.93
2023-09-27T04:10:21.941Z,9.92
2023-09-27T04:12:50.306Z,9.90
2023-09-27T04:15:18.416Z,9.88
2023-09-27T04:17:50.128Z,9.86
2023-09-27T04:20:22.868Z,9.87
2023-09-27T04:22:53.653Z,9.87
2023-09-27T04:25:22.299Z,9.84
2023-09-27T04:27:51.836Z,9.86
2023-09-27T04:30:23.466Z,9.87
2023-09-27T04:32:52.471Z,9.86
2023-09-27T04:35:23.113Z,9.88
2023-09-27T04:37:51.446Z,9.89
2023-09-27T04:40:20.178Z,9.90
2023-09-27T04:42:50.883Z,9.89
2023-09-27T04:45:19.299Z,9.90
2023-09-27T04:47:47.548Z,9.90
2023-09-27T04:50:17.141Z,9.89
2023-09-27T04:52:46.386Z,9.90
2023-09-27T04:55:14.864Z,9.90
2023-09-27T04:57:43.752Z,9.93
2023-09-27T05:00:19.837Z,9.89
2023-09-27T05:02:49.840Z,9.92
2023-09-27T05:05:19.125Z,9.95
2023-09-27T05:07:48.121Z,9.99
2023-09-27T05:10:19.450Z,10.03
2023-09-27T05:12:48.357Z,10.06
2023-09-27T05:15:17.555Z,10.09
2023-09-27T05:17:46.910Z,10.11
2023-09-27T05:20:15.517Z,10.15
2023-09-27T05:22:44.170Z,10.18
2023-09-27T05:25:13.489Z,10.23
2023-09-27T05:27:42.183Z,10.29
2023-09-27T05:30:15.646Z,10.35
2023-09-27T05:32:45.017Z,10.40
2023-09-27T05:35:15.437Z,10.44
2023-09-27T05:37:44.702Z,10.52
2023-09-27T05:40:13.878Z,10.60
2023-09-27T05:42:42.269Z,10.67
2023-09-27T05:45:12.915Z,10.76
2023-09-27T05:47:42.117Z,10.85
2023-09-27T05:50:15.265Z,10.94
2023-09-27T05:52:46.091Z,11.01
2023-09-27T05:55:17.460Z,11.09
2023-09-27T05:57:45.878Z,11.16
2023-09-27T06:00:41.461Z,11.22
2023-09-27T06:03:28.884Z,11.33
2023-09-27T06:05:57.897Z,11.42
2023-09-27T06:08:26.720Z,11.49
2023-09-27T06:10:55.434Z,11.58
2023-09-27T06:13:23.968Z,11.67
2023-09-27T06:15:52.683Z,11.79
2023-09-27T06:18:21.002Z,11.89
2023-09-27T06:20:49.469Z,12.00
2023-09-27T06:23:20.636Z,12.13
2023-09-27T06:25:49.938Z,12.25
2023-09-27T06:28:20.150Z,12.38
2023-09-27T06:30:49.615Z,12.50
2023-09-27T06:33:18.119Z,12.61
2023-09-27T06:35:47.062Z,12.73
2023-09-27T06:38:24.949Z,12.84
2023-09-27T06:40:55.935Z,12.95
2023-09-27T06:43:29.444Z,13.07
2023-09-27T06:46:02.852Z,13.20
2023-09-27T06:48:31.678Z,13.32
2023-09-27T06:51:01.682Z,13.43
2023-09-27T06:53:33.429Z,13.54
2023-09-27T06:56:03.802Z,13.64
2023-09-27T06:58:32.089Z,13.75
2023-09-27T07:01:01.056Z,13.86
2023-09-27T07:03:34.942Z,14.00
2023-09-27T07:06:04.091Z,14.12
2023-09-27T07:08:33.944Z,14.27
2023-09-27T07:11:11.472Z,14.42
2023-09-27T07:13:43.486Z,14.55
2023-09-27T07:16:28.212Z,14.71
2023-09-27T07:19:02.279Z,14.88
2023-09-27T07:21:31.876Z,15.03
2023-09-27T07:24:00.440Z,15.17
2023-09-27T07:26:31.054Z,15.31
2023-09-27T07:29:01.647Z,15.45
2023-09-27T07:31:31.157Z,15.58
2023-09-27T07:34:01.493Z,15.70
2023-09-27T07:36:30.751Z,15.82
2023-09-27T07:39:06.512Z,15.95
2023-09-27T07:41:37.135Z,16.10
2023-09-27T07:44:11.652Z,16.22
2023-09-27T07:46:43.091Z,16.34
2023-09-27T07:49:15.279Z,16.48
2023-09-27T07:51:43.678Z,16.62
2023-09-27T07:54:13.823Z,16.76
2023-09-27T07:56:43.135Z,16.89
2023-09-27T07:59:11.473Z,17.04
2023-09-27T08:01:39.912Z,17.20
2023-09-27T08:04:12.041Z,17.34
2023-09-27T08:06:41.165Z,17.52
2023-09-27T08:09:17.616Z,17.70
2023-09-27T08:11:49.848Z,17.84
2023-09-27T08:14:19.845Z,17.97
2023-09-27T08:16:52.366Z,18.09
2023-09-27T08:19:20.774Z,18.20
2023-09-27T08:21:49.783Z,18.30
2023-09-27T08:24:18.699Z,18.41
2023-09-27T08:26:52.133Z,18.50
2023-09-27T08:29:22.899Z,18.60
2023-09-27T08:31:52.542Z,18.73
2023-09-27T08:34:22.575Z,18.86
2023-09-27T08:36:54.106Z,18.95
2023-09-27T08:39:28.047Z,19.06
2023-09-27T08:41:56.619Z,19.18
2023-09-27T08:44:27.215Z,19.27
2023-09-27T08:46:59.944Z,19.39
2023-09-27T08:49:30.812Z,19.51
2023-09-27T08:52:07.962Z,19.62
2023-09-27T08:54:36.347Z,19.73
2023-09-27T08:57:05.503Z,19.86
2023-09-27T08:59:34.554Z,19.96
2023-09-27T09:02:06.771Z,20.04
2023-09-27T09:04:35.057Z,20.17
2023-09-27T09:07:11.657Z,20.26
2023-09-27T09:17:12.743Z,20.65
2023-09-27T09:20:16.614Z,20.88
2023-09-27T09:22:47.943Z,21.07
2023-09-27T09:25:16.014Z,21.21
2023-09-27T09:27:45.774Z,21.34
2023-09-27T09:30:16.105Z,21.38
2023-09-27T09:32:53.364Z,21.52
2023-09-27T09:35:33.546Z,21.66
2023-09-27T09:38:05.453Z,21.76
2023-09-27T09:40:54.202Z,21.86
2023-09-27T09:43:37.853Z,21.96
2023-09-27T09:46:11.395Z,22.01
2023-09-27T09:48:41.890Z,21.99
2023-09-27T09:51:10.374Z,22.14
2023-09-27T09:53:43.480Z,22.32
2023-09-27T09:58:53.895Z,22.66
2023-09-27T10:01:28.222Z,22.90
2023-09-27T10:04:05.808Z,23.13
2023-09-27T10:06:48.129Z,23.28
2023-09-27T10:09:18.913Z,23.31
2023-09-27T10:11:49.108Z,23.43
2023-09-27T10:14:23.370Z,23.46
2023-09-27T10:16:52.938Z,23.69
2023-09-27T10:19:30.421Z,23.77
2023-09-27T10:22:06.248Z,23.93
2023-09-27T10:24:38.579Z,24.11
2023-09-27T10:27:07.053Z,24.27
2023-09-27T10:29:56.557Z,24.29
2023-09-27T10:32:28.126Z,24.42
2023-09-27T10:34:58.046Z,24.40
2023-09-27T10:38:01.603Z,24.25
2023-09-27T10:40:42.455Z,24.26
2023-09-27T10:43:11.527Z,24.34
2023-09-27T10:45:39.980Z,24.57
2023-09-27T10:48:16.842Z,24.53
2023-09-27T10:50:57.857Z,24.47
2023-09-27T10:53:26.618Z,24.57
2023-09-27T10:55:58.263Z,24.58
2023-09-27T10:58:27.759Z,24.93
2023-09-27T11:01:07.907Z,25.30
2023-09-27T11:03:36.370Z,25.53
2023-09-27T11:06:11.912Z,25.98
2023-09-27T11:08:43.842Z,25.84
2023-09-27T11:11:13.284Z,25.93
2023-09-27T11:13:45.387Z,26.31
2023-09-27T11:16:19.800Z,26.55
2023-09-27T11:18:55.365Z,26.70
2023-09-27T11:21:50.202Z,27.11
2023-09-27T11:24:18.646Z,27.50
2023-09-27T11:26:46.881Z,27.93
2023-09-27T11:29:15.354Z,28.57
2023-09-27T11:31:44.067Z,28.39
2023-09-27T11:34:16.427Z,28.81
2023-09-27T11:36:50.240Z,29.03
2023-09-27T11:39:20.898Z,29.22
2023-09-27T11:41:50.570Z,29.20
2023-09-27T11:44:20.676Z,29.25
2023-09-27T11:46:52.415Z,29.95
2023-09-27T11:49:28.429Z,30.47
2023-09-27T11:52:00.950Z,30.30
2023-09-27T11:54:31.111Z,30.56
2023-09-27T11:57:01.207Z,30.61
2023-09-27T11:59:29.691Z,30.66
2023-09-27T12:02:06.437Z,30.65
2023-09-27T12:04:41.269Z,30.94
2023-09-27T12:07:12.001Z,31.60
2023-09-27T12:09:41.309Z,31.80
2023-09-27T12:12:12.886Z,32.05
2023-09-27T12:14:42.754Z,32.85
2023-09-27T12:17:11.248Z,33.29
2023-09-27T12:19:43.672Z,33.27
2023-09-27T12:22:15.940Z,33.40
2023-09-27T12:24:44.609Z,33.00
2023-09-27T12:27:13.045Z,32.67
2023-09-27T12:29:41.432Z,32.58
2023-09-27T12:32:12.318Z,31.34
2023-09-27T12:34:41.795Z,31.85
2023-09-27T12:37:10.712Z,32.01
2023-09-27T12:39:39.454Z,32.57
2023-09-27T12:42:09.514Z,33.21
2023-09-27T12:44:37.755Z,32.34
2023-09-27T12:47:06.298Z,32.24
2023-09-27T12:49:41.435Z,31.88
2023-09-27T12:52:13.231Z,32.11
2023-09-27T12:54:49.243Z,32.60
2023-09-27T12:57:17.504Z,32.74
2023-09-27T12:59:45.765Z,33.05
2023-09-27T13:02:16.733Z,33.10
2023-09-27T13:04:46.435Z,33.50
2023-09-27T13:07:18.505Z,33.66
2023-09-27T13:09:46.789Z,33.46
2023-09-27T13:12:15.413Z,33.12
2023-09-27T13:14:43.658Z,33.18
2023-09-27T13:17:15.050Z,33.07
2023-09-27T13:19:44.761Z,33.30
2023-09-27T13:22:14.012Z,33.56
2023-09-27T13:24:43.566Z,33.49
2023-09-27T13:27:14.463Z,33.12
2023-09-27T13:29:43.921Z,34.07
2023-09-27T13:32:14.126Z,34.94
2023-09-27T13:34:43.901Z,34.84
2023-09-27T13:37:15.764Z,34.31
2023-09-27T13:39:44.856Z,34.23
2023-09-27T13:42:13.401Z,34.95
2023-09-27T13:44:44.222Z,35.99
2023-09-27T13:47:17.254Z,35.78
2023-09-27T13:49:45.985Z,35.97
2023-09-27T13:52:15.112Z,36.68
2023-09-27T13:54:44.304Z,36.80
2023-09-27T13:57:12.581Z,36.03
2023-09-27T13:59:45.071Z,35.59
2023-09-27T14:02:15.806Z,35.16
2023-09-27T14:04:44.501Z,34.74
2023-09-27T14:07:12.704Z,34.87
2023-09-27T14:09:40.895Z,35.45
2023-09-27T14:12:09.111Z,34.76
2023-09-27T14:14:37.356Z,34.66
2023-09-27T14:17:06.044Z,34.53
2023-09-27T14:19:35.656Z,34.85
2023-09-27T14:22:03.801Z,35.11
2023-09-27T14:24:34.279Z,34.94
2023-09-27T14:27:03.446Z,35.41
2023-09-27T14:29:36.307Z,35.14
2023-09-27T14:32:06.493Z,34.99
2023-09-27T14:34:56.670Z,34.38
2023-09-27T14:37:25.933Z,34.64
2023-09-27T14:39:54.268Z,34.75
2023-09-27T14:42:23.736Z,34.83
2023-09-27T14:44:52.053Z,34.51
2023-09-27T14:47:20.892Z,34.98
2023-09-27T14:49:49.054Z,35.26
2023-09-27T14:52:17.657Z,34.72
2023-09-27T14:54:48.101Z,34.71
2023-09-27T14:57:17.395Z,34.10
2023-09-27T14:59:45.723Z,33.95
2023-09-27T15:02:16.472Z,33.80
2023-09-27T15:04:45.188Z,33.84
2023-09-27T15:07:13.532Z,33.72
2023-09-27T15:09:41.671Z,33.08
2023-09-27T15:12:09.728Z,32.89
2023-09-27T15:14:38.605Z,33.20
2023-09-27T15:17:07.262Z,33.10
2023-09-27T15:19:35.688Z,33.11
2023-09-27T15:22:04.936Z,33.44
2023-09-27T15:24:33.036Z,33.19
2023-09-27T15:27:04.308Z,32.61
2023-09-27T15:29:32.536Z,32.08
2023-09-27T15:32:01.096Z,32.17
2023-09-27T15:34:29.742Z,32.08
2023-09-27T15:36:57.948Z,31.34
2023-09-27T15:39:26.563Z,31.20
2023-09-27T15:41:55.050Z,31.14
2023-09-27T15:44:23.338Z,30.43
2023-09-27T15:46:52.714Z,29.95
2023-09-27T15:49:21.046Z,29.40
2023-09-27T15:51:49.433Z,28.73
2023-09-27T15:54:19.407Z,28.09
2023-09-27T15:56:48.159Z,27.57
2023-09-27T15:59:17.779Z,26.97
2023-09-27T16:01:46.805Z,26.40
2023-09-27T16:04:15.411Z,25.86
2023-09-27T16:06:43.855Z,25.35
2023-09-27T16:09:12.160Z,24.85
2023-09-27T16:11:42.976Z,24.43
2023-09-27T16:14:13.225Z,24.01
2023-09-27T16:16:41.733Z,23.61
2023-09-27T16:19:10.190Z,23.23
2023-09-27T16:21:38.683Z,22.91
2023-09-27T16:24:07.638Z,22.64
2023-09-27T16:26:35.667Z,22.37
2023-09-27T16:29:05.922Z,22.07
2023-09-27T16:31:34.844Z,21.84
2023-09-27T16:34:03.971Z,21.63
2023-09-27T16:36:35.724Z,21.40
2023-09-27T16:39:04.260Z,21.21
2023-09-27T16:41:34.588Z,21.02
2023-09-27T16:44:04.236Z,20.82
2023-09-27T16:46:32.682Z,20.66
2023-09-27T16:49:00.813Z,20.52
2023-09-27T16:51:29.324Z,20.36
2023-09-27T16:53:57.575Z,20.20
2023-09-27T16:56:26.582Z,20.02
2023-09-27T16:59:00.301Z,19.85
2023-09-27T17:01:32.030Z,19.65
2023-09-27T17:04:01.533Z,19.48
2023-09-27T17:06:31.533Z,19.31
2023-09-27T17:09:02.920Z,19.14
2023-09-27T17:11:33.690Z,19.02
2023-09-27T17:14:02.982Z,18.90
2023-09-27T17:16:31.599Z,18.80
2023-09-27T17:19:02.265Z,18.71
2023-09-27T17:21:31.997Z,18.62
2023-09-27T17:24:00.546Z,18.55
2023-09-27T17:26:31.008Z,18.45
2023-09-27T17:28:59.510Z,18.36
2023-09-27T17:31:27.638Z,18.26
2023-09-27T17:33:57.502Z,18.17
2023-09-27T17:36:28.791Z,18.08
2023-09-27T17:38:57.212Z,17.97
2023-09-27T17:41:25.258Z,17.88
2023-09-27T17:43:53.766Z,17.78
2023-09-27T17:46:31.551Z,17.69
2023-09-27T17:49:03.378Z,17.61
2023-09-27T17:51:35.097Z,17.52
2023-09-27T17:54:04.214Z,17.43
2023-09-27T17:56:32.192Z,17.36
2023-09-27T17:59:01.018Z,17.30
2023-09-27T18:01:34.646Z,17.22
2023-09-27T18:04:03.271Z,17.14
2023-09-27T18:06:34.687Z,17.09
2023-09-27T18:09:03.901Z,17.03
2023-09-27T18:11:32.545Z,16.98
2023-09-27T18:14:01.727Z,16.90
2023-09-27T18:16:34.399Z,16.84
2023-09-27T18:19:04.330Z,16.77
2023-09-27T18:21:32.863Z,16.69
2023-09-27T18:24:04.408Z,16.65
2023-09-27T18:26:33.314Z,16.63
2023-09-27T18:29:04.161Z,16.59
2023-09-27T18:31:32.185Z,16.53
2023-09-27T18:34:04.471Z,16.47
2023-09-27T18:36:34.247Z,16.43
2023-09-27T18:39:02.448Z,16.37
2023-09-27T18:41:30.538Z,16.32
2023-09-27T18:44:01.650Z,16.26
2023-09-27T18:46:29.878Z,16.21
2023-09-27T18:49:00.445Z,16.15
2023-09-27T18:51:28.749Z,16.08
2023-09-27T18:53:59.920Z,16.03
2023-09-27T18:56:30.366Z,15.99
2023-09-27T18:59:10.922Z,15.96
2023-09-27T19:01:42.325Z,15.90
2023-09-27T19:04:13.147Z,15.85
2023-09-27T19:06:42.267Z,15.78
2023-09-27T19:09:12.311Z,15.72
2023-09-27T19:11:42.551Z,15.68
2023-09-27T19:14:14.635Z,15.63
2023-09-27T19:16:43.910Z,15.59
2023-09-27T19:19:12.146Z,15.55
2023-09-27T19:21:40.679Z,15.50
2023-09-27T19:24:11.753Z,15.44
2023-09-27T19:26:40.545Z,15.39
2023-09-27T19:29:09.117Z,15.33
2023-09-27T19:31:37.270Z,15.25
2023-09-27T19:34:11.268Z,15.17
2023-09-27T19:36:42.477Z,15.11
2023-09-27T19:39:13.590Z,15.03
2023-09-27T19:41:42.936Z,14.98
2023-09-27T19:44:14.878Z,14.89
2023-09-27T19:46:45.176Z,14.84
2023-09-27T19:49:18.133Z,14.79
2023-09-27T19:51:48.658Z,14.73
2023-09-27T19:54:17.787Z,14.67
2023-09-27T19:56:45.910Z,14.59
2023-09-27T19:59:17.605Z,14.54
2023-09-27T20:01:45.772Z,14.47
2023-09-27T20:04:14.928Z,14.39
2023-09-27T20:06:43.333Z,14.34
2023-09-27T20:09:11.362Z,14.26
2023-09-27T20:11:40.243Z,14.18
2023-09-27T20:14:09.618Z,14.12
2023-09-27T20:16:39.392Z,14.08
2023-09-27T20:19:07.710Z,14.02
2023-09-27T20:21:37.196Z,13.98
2023-09-27T20:24:05.816Z,13.93
2023-09-27T20:26:35.263Z,13.90
2023-09-27T20:29:04.652Z,13.85
2023-09-27T20:31:32.948Z,13.83
2023-09-27T20:34:01.580Z,13.80
2023-09-27T20:36:29.734Z,13.77
2023-09-27T20:38:57.866Z,13.74
2023-09-27T20:41:25.957Z,13.72
2023-09-27T20:43:54.833Z,13.69
2023-09-27T20:46:24.865Z,13.66
2023-09-27T20:48:54.060Z,13.63
2023-09-27T20:51:22.250Z,13.57
2023-09-27T20:53:50.473Z,13.54
2023-09-27T20:56:21.579Z,13.51
2023-09-27T20:58:51.604Z,13.47
2023-09-27T21:01:37.357Z,13.43
2023-09-27T21:04:08.343Z,13.39
2023-09-27T21:06:36.475Z,13.34
2023-09-27T21:09:05.184Z,13.29
2023-09-27T21:11:33.545Z,13.22
2023-09-27T21:14:03.649Z,13.19
2023-09-27T21:16:33.700Z,13.15
2023-09-27T21:19:02.621Z,13.09
2023-09-27T21:21:31.449Z,13.05
2023-09-27T21:24:00.599Z,13.02
2023-09-27T21:26:28.884Z,12.99
2023-09-27T21:28:57.043Z,12.95
2023-09-27T21:31:25.805Z,12.91
2023-09-27T21:33:55.447Z,12.89
2023-09-27T21:36:25.910Z,12.87
2023-09-27T21:38:54.386Z,12.86
2023-09-27T21:41:23.542Z,12.86
2023-09-27T21:43:51.738Z,12.85
2023-09-27T21:46:20.825Z,12.82
2023-09-27T21:48:49.589Z,12.78
2023-09-27T21:51:18.927Z,12.75
2023-09-27T21:53:47.175Z,12.71
2023-09-27T21:56:15.783Z,12.67
2023-09-27T21:58:44.925Z,12.65
2023-09-27T22:01:14.205Z,12.63
2023-09-27T22:03:43.172Z,12.58
2023-09-27T22:06:11.871Z,12.55
2023-09-27T22:08:49.461Z,12.52
2023-09-27T22:11:18.546Z,12.48
2023-09-27T22:13:49.519Z,12.44
2023-09-27T22:16:22.540Z,12.42
2023-09-27T22:18:51.143Z,12.39
2023-09-27T22:21:29.264Z,12.37
2023-09-27T22:24:08.775Z,12.34
2023-09-27T22:26:39.854Z,12.31
2023-09-27T22:29:11.393Z,12.28
2023-09-27T22:31:40.199Z,12.26
2023-09-27T22:34:24.759Z,12.23
2023-09-27T22:36:53.710Z,12.20
2023-09-27T22:39:23.324Z,12.20
2023-09-27T22:41:53.909Z,12.18
2023-09-27T22:44:23.474Z,12.16
2023-09-27T22:46:53.978Z,12.13
2023-09-27T22:49:24.350Z,12.13
2023-09-27T22:51:52.782Z,12.09
2023-09-27T22:54:22.510Z,12.07
2023-09-27T22:56:53.665Z,12.04
2023-09-27T22:59:22.918Z,12.00
2023-09-27T23:01:56.177Z,11.99
2023-09-27T23:04:25.166Z,11.95
2023-09-27T23:07:03.267Z,11.94
2023-09-27T23:09:36.354Z,11.92
2023-09-27T23:12:18.293Z,11.91
2023-09-27T23:15:05.830Z,11.90
2023-09-27T23:17:44.953Z,11.88
2023-09-27T23:20:13.135Z,11.84
2023-09-27T23:22:59.684Z,11.83
2023-09-27T23:25:45.814Z,11.81
2023-09-27T23:28:29.002Z,11.78
2023-09-27T23:31:05.804Z,11.77
2023-09-27T23:33:33.900Z,11.74
2023-09-27T23:36:01.849Z,11.72
2023-09-27T23:38:48.370Z,11.71
2023-09-27T23:41:16.905Z,11.69
2023-09-27T23:43:45.185Z,11.68
2023-09-27T23:46:21.953Z,11.67
2023-09-27T23:48:53.756Z,11.66
2023-09-27T23:51:25.462Z,11.63
2023-09-27T23:53:53.899Z,11.62
2023-09-27T23:56:24.085Z,11.60
2023-09-27T23:58:54.807Z,11.59
